sensor_id;sensor_type;location;lat;lon;timestamp;pressure;altitude;pressure_sealevel;temperature
56286;BMP180;42191;47.562;9.686;2023-07-28T00:02:14;96327.00;;;21.50
56286;BMP180;42191;47.562;9.686;2023-07-28T00:04:40;96328.00;;;21.50
56286;BMP180;42191;47.562;9.686;2023-07-28T00:07:06;96327.00;;;21.50
56286;BMP180;42191;47.562;9.686;2023-07-28T00:09:33;96323.00;;;21.50
56286;BMP180;42191;47.562;9.686;2023-07-28T00:12:00;96329.00;;;21.50
56286;BMP180;42191;47.562;9.686;2023-07-28T00:14:27;96325.00;;;21.50
56286;BMP180;42191;47.562;9.686;2023-07-28T00:16:54;96323.00;;;21.50
56286;BMP180;42191;47.562;9.686;2023-07-28T00:19:21;96324.00;;;21.50
56286;BMP180;42191;47.562;9.686;2023-07-28T00:21:50;96316.00;;;21.50
56286;BMP180;42191;47.562;9.686;2023-07-28T00:24:17;96319.00;;;21.50
56286;BMP180;42191;47.562;9.686;2023-07-28T00:26:43;96327.00;;;21.50
56286;BMP180;42191;47.562;9.686;2023-07-28T00:29:10;96324.00;;;21.50
56286;BMP180;42191;47.562;9.686;2023-07-28T00:31:36;96319.00;;;21.50
56286;BMP180;42191;47.562;9.686;2023-07-28T00:34:03;96312.00;;;21.50
56286;BMP180;42191;47.562;9.686;2023-07-28T00:36:30;96313.00;;;21.50
56286;BMP180;42191;47.562;9.686;2023-07-28T00:38:56;96303.00;;;21.50
56286;BMP180;42191;47.562;9.686;2023-07-28T00:41:22;96302.00;;;21.50
56286;BMP180;42191;47.562;9.686;2023-07-28T00:43:48;96298.00;;;21.50
56286;BMP180;42191;47.562;9.686;2023-07-28T00:46:15;96301.00;;;21.50
56286;BMP180;42191;47.562;9.686;2023-07-28T00:48:41;96299.00;;;21.50
56286;BMP180;42191;47.562;9.686;2023-07-28T00:51:09;96294.00;;;21.50
56286;BMP180;42191;47.562;9.686;2023-07-28T00:53:35;96294.00;;;21.50
56286;BMP180;42191;47.562;9.686;2023-07-28T00:56:02;96297.00;;;21.50
56286;BMP180;42191;47.562;9.686;2023-07-28T00:58:29;96289.00;;;21.50
56286;BMP180;42191;47.562;9.686;2023-07-28T01:00:55;96286.00;;;21.50
56286;BMP180;42191;47.562;9.686;2023-07-28T01:03:22;96291.00;;;21.50
56286;BMP180;42191;47.562;9.686;2023-07-28T01:06:27;96290.00;;;21.40
56286;BMP180;42191;47.562;9.686;2023-07-28T01:09:09;96283.00;;;21.40
56286;BMP180;42191;47.562;9.686;2023-07-28T01:11:37;96288.00;;;21.40
56286;BMP180;42191;47.562;9.686;2023-07-28T01:14:03;96291.00;;;21.40
56286;BMP180;42191;47.562;9.686;2023-07-28T01:16:29;96284.00;;;21.40
56286;BMP180;42191;47.562;9.686;2023-07-28T01:18:56;96276.00;;;21.40
56286;BMP180;42191;47.562;9.686;2023-07-28T01:21:25;96276.00;;;21.40
56286;BMP180;42191;47.562;9.686;2023-07-28T01:26:51;96259.00;;;21.40
56286;BMP180;42191;47.562;9.686;2023-07-28T01:29:19;96258.00;;;21.40
56286;BMP180;42191;47.562;9.686;2023-07-28T01:31:48;96249.00;;;21.40
56286;BMP180;42191;47.562;9.686;2023-07-28T01:34:14;96254.00;;;21.40
56286;BMP180;42191;47.562;9.686;2023-07-28T01:36:41;96248.00;;;21.40
56286;BMP180;42191;47.562;9.686;2023-07-28T01:39:07;96253.00;;;21.40
56286;BMP180;42191;47.562;9.686;2023-07-28T01:41:33;96248.00;;;21.40
56286;BMP180;42191;47.562;9.686;2023-07-28T01:43:59;96243.00;;;21.30
56286;BMP180;42191;47.562;9.686;2023-07-28T01:46:25;96241.00;;;21.30
56286;BMP180;42191;47.562;9.686;2023-07-28T01:48:51;96248.00;;;21.40
56286;BMP180;42191;47.562;9.686;2023-07-28T01:51:17;96244.00;;;21.30
56286;BMP180;42191;47.562;9.686;2023-07-28T01:53:43;96250.00;;;21.30
56286;BMP180;42191;47.562;9.686;2023-07-28T01:56:09;96242.00;;;21.40
56286;BMP180;42191;47.562;9.686;2023-07-28T01:58:35;96246.00;;;21.40
56286;BMP180;42191;47.562;9.686;2023-07-28T02:01:02;96248.00;;;21.40
56286;BMP180;42191;47.562;9.686;2023-07-28T02:03:28;96256.00;;;21.50
56286;BMP180;42191;47.562;9.686;2023-07-28T02:05:55;96251.00;;;21.50
56286;BMP180;42191;47.562;9.686;2023-07-28T02:08:21;96243.00;;;21.50
56286;BMP180;42191;47.562;9.686;2023-07-28T02:10:47;96244.00;;;21.60
56286;BMP180;42191;47.562;9.686;2023-07-28T02:13:13;96249.00;;;21.60
56286;BMP180;42191;47.562;9.686;2023-07-28T02:15:40;96246.00;;;21.60
56286;BMP180;42191;47.562;9.686;2023-07-28T02:18:06;96245.00;;;21.60
56286;BMP180;42191;47.562;9.686;2023-07-28T02:20:32;96247.00;;;21.60
56286;BMP180;42191;47.562;9.686;2023-07-28T02:23:00;96249.00;;;21.60
56286;BMP180;42191;47.562;9.686;2023-07-28T02:25:26;96265.00;;;21.60
56286;BMP180;42191;47.562;9.686;2023-07-28T02:27:52;96262.00;;;21.60
56286;BMP180;42191;47.562;9.686;2023-07-28T02:30:18;96257.00;;;21.70
56286;BMP180;42191;47.562;9.686;2023-07-28T02:32:44;96256.00;;;21.70
56286;BMP180;42191;47.562;9.686;2023-07-28T02:35:10;96249.00;;;21.70
56286;BMP180;42191;47.562;9.686;2023-07-28T02:37:36;96253.00;;;21.70
56286;BMP180;42191;47.562;9.686;2023-07-28T02:40:03;96259.00;;;21.80
56286;BMP180;42191;47.562;9.686;2023-07-28T02:42:30;96264.00;;;21.80
56286;BMP180;42191;47.562;9.686;2023-07-28T02:44:56;96248.00;;;21.80
56286;BMP180;42191;47.562;9.686;2023-07-28T02:47:22;96259.00;;;21.90
56286;BMP180;42191;47.562;9.686;2023-07-28T02:49:48;96263.00;;;21.90
56286;BMP180;42191;47.562;9.686;2023-07-28T02:52:14;96270.00;;;21.90
56286;BMP180;42191;47.562;9.686;2023-07-28T02:54:40;96271.00;;;22.00
56286;BMP180;42191;47.562;9.686;2023-07-28T02:57:07;96270.00;;;22.00
56286;BMP180;42191;47.562;9.686;2023-07-28T02:59:33;96273.00;;;22.00
56286;BMP180;42191;47.562;9.686;2023-07-28T03:01:59;96268.00;;;22.00
56286;BMP180;42191;47.562;9.686;2023-07-28T03:04:25;96271.00;;;22.00
56286;BMP180;42191;47.562;9.686;2023-07-28T03:06:51;96271.00;;;22.00
56286;BMP180;42191;47.562;9.686;2023-07-28T03:09:17;96280.00;;;22.00
56286;BMP180;42191;47.562;9.686;2023-07-28T03:11:43;96274.00;;;22.00
56286;BMP180;42191;47.562;9.686;2023-07-28T03:14:10;96293.00;;;22.00
56286;BMP180;42191;47.562;9.686;2023-07-28T03:16:37;96292.00;;;22.00
56286;BMP180;42191;47.562;9.686;2023-07-28T03:19:03;96280.00;;;22.00
56286;BMP180;42191;47.562;9.686;2023-07-28T03:21:30;96287.00;;;22.00
56286;BMP180;42191;47.562;9.686;2023-07-28T03:23:57;96302.00;;;22.00
56286;BMP180;42191;47.562;9.686;2023-07-28T03:26:23;96297.00;;;22.00
56286;BMP180;42191;47.562;9.686;2023-07-28T03:28:49;96307.00;;;22.00
56286;BMP180;42191;47.562;9.686;2023-07-28T03:31:16;96323.00;;;22.00
56286;BMP180;42191;47.562;9.686;2023-07-28T03:33:42;96329.00;;;22.10
56286;BMP180;42191;47.562;9.686;2023-07-28T03:36:08;96339.00;;;22.10
56286;BMP180;42191;47.562;9.686;2023-07-28T03:38:34;96336.00;;;22.10
56286;BMP180;42191;47.562;9.686;2023-07-28T03:41:00;96344.00;;;22.20
56286;BMP180;42191;47.562;9.686;2023-07-28T03:43:26;96352.00;;;22.20
56286;BMP180;42191;47.562;9.686;2023-07-28T03:45:53;96362.00;;;22.20
56286;BMP180;42191;47.562;9.686;2023-07-28T03:48:19;96366.00;;;22.30
56286;BMP180;42191;47.562;9.686;2023-07-28T03:50:45;96361.00;;;22.30
56286;BMP180;42191;47.562;9.686;2023-07-28T03:53:11;96362.00;;;22.30
56286;BMP180;42191;47.562;9.686;2023-07-28T03:55:37;96370.00;;;22.30
56286;BMP180;42191;47.562;9.686;2023-07-28T03:58:03;96375.00;;;22.30
56286;BMP180;42191;47.562;9.686;2023-07-28T04:00:30;96366.00;;;22.40
56286;BMP180;42191;47.562;9.686;2023-07-28T04:02:56;96373.00;;;22.40
56286;BMP180;42191;47.562;9.686;2023-07-28T04:05:22;96372.00;;;22.40
56286;BMP180;42191;47.562;9.686;2023-07-28T04:07:48;96366.00;;;22.40
56286;BMP180;42191;47.562;9.686;2023-07-28T04:10:14;96370.00;;;22.40
56286;BMP180;42191;47.562;9.686;2023-07-28T04:12:40;96375.00;;;22.40
56286;BMP180;42191;47.562;9.686;2023-07-28T04:15:07;96378.00;;;22.40
56286;BMP180;42191;47.562;9.686;2023-07-28T04:17:33;96378.00;;;22.50
56286;BMP180;42191;47.562;9.686;2023-07-28T04:19:59;96372.00;;;22.40
56286;BMP180;42191;47.562;9.686;2023-07-28T04:22:25;96382.00;;;22.40
56286;BMP180;42191;47.562;9.686;2023-07-28T04:24:51;96381.00;;;22.40
56286;BMP180;42191;47.562;9.686;2023-07-28T04:27:17;96392.00;;;22.40
56286;BMP180;42191;47.562;9.686;2023-07-28T04:29:43;96389.00;;;22.40
56286;BMP180;42191;47.562;9.686;2023-07-28T04:32:10;96406.00;;;22.40
56286;BMP180;42191;47.562;9.686;2023-07-28T04:34:36;96400.00;;;22.40
56286;BMP180;42191;47.562;9.686;2023-07-28T04:37:02;96412.00;;;22.40
56286;BMP180;42191;47.562;9.686;2023-07-28T04:39:28;96421.00;;;22.40
56286;BMP180;42191;47.562;9.686;2023-07-28T04:41:54;96416.00;;;22.50
56286;BMP180;42191;47.562;9.686;2023-07-28T04:44:20;96418.00;;;22.50
56286;BMP180;42191;47.562;9.686;2023-07-28T04:46:46;96410.00;;;22.50
56286;BMP180;42191;47.562;9.686;2023-07-28T04:49:14;96403.00;;;22.50
56286;BMP180;42191;47.562;9.686;2023-07-28T04:51:40;96402.00;;;22.60
56286;BMP180;42191;47.562;9.686;2023-07-28T04:54:06;96402.00;;;22.60
56286;BMP180;42191;47.562;9.686;2023-07-28T04:56:32;96404.00;;;22.60
56286;BMP180;42191;47.562;9.686;2023-07-28T04:58:58;96414.00;;;22.70
56286;BMP180;42191;47.562;9.686;2023-07-28T05:01:26;96432.00;;;22.70
56286;BMP180;42191;47.562;9.686;2023-07-28T05:03:52;96418.00;;;22.70
56286;BMP180;42191;47.562;9.686;2023-07-28T05:06:18;96427.00;;;22.80
56286;BMP180;42191;47.562;9.686;2023-07-28T05:08:44;96419.00;;;22.80
56286;BMP180;42191;47.562;9.686;2023-07-28T05:11:10;96433.00;;;22.90
56286;BMP180;42191;47.562;9.686;2023-07-28T05:13:36;96420.00;;;22.90
56286;BMP180;42191;47.562;9.686;2023-07-28T05:16:02;96427.00;;;22.90
56286;BMP180;42191;47.562;9.686;2023-07-28T05:18:28;96433.00;;;23.00
56286;BMP180;42191;47.562;9.686;2023-07-28T05:20:54;96430.00;;;23.00
56286;BMP180;42191;47.562;9.686;2023-07-28T05:23:21;96427.00;;;23.00
56286;BMP180;42191;47.562;9.686;2023-07-28T05:25:47;96429.00;;;23.10
56286;BMP180;42191;47.562;9.686;2023-07-28T05:28:14;96414.00;;;23.10
56286;BMP180;42191;47.562;9.686;2023-07-28T05:30:40;96412.00;;;23.20
56286;BMP180;42191;47.562;9.686;2023-07-28T05:33:06;96415.00;;;23.20
56286;BMP180;42191;47.562;9.686;2023-07-28T05:35:32;96416.00;;;23.30
56286;BMP180;42191;47.562;9.686;2023-07-28T05:37:59;96416.00;;;23.30
56286;BMP180;42191;47.562;9.686;2023-07-28T05:40:25;96421.00;;;23.40
56286;BMP180;42191;47.562;9.686;2023-07-28T05:42:51;96427.00;;;23.40
56286;BMP180;42191;47.562;9.686;2023-07-28T05:45:17;96416.00;;;23.50
56286;BMP180;42191;47.562;9.686;2023-07-28T05:47:43;96435.00;;;23.50
56286;BMP180;42191;47.562;9.686;2023-07-28T05:50:09;96423.00;;;23.60
56286;BMP180;42191;47.562;9.686;2023-07-28T05:52:35;96435.00;;;23.60
56286;BMP180;42191;47.562;9.686;2023-07-28T05:55:02;96430.00;;;23.60
56286;BMP180;42191;47.562;9.686;2023-07-28T05:57:28;96430.00;;;23.70
56286;BMP180;42191;47.562;9.686;2023-07-28T05:59:54;96428.00;;;23.70
56286;BMP180;42191;47.562;9.686;2023-07-28T06:02:20;96429.00;;;23.70
56286;BMP180;42191;47.562;9.686;2023-07-28T06:04:46;96434.00;;;23.80
56286;BMP180;42191;47.562;9.686;2023-07-28T06:07:12;96430.00;;;23.90
56286;BMP180;42191;47.562;9.686;2023-07-28T06:09:38;96431.00;;;23.90
56286;BMP180;42191;47.562;9.686;2023-07-28T06:12:05;96438.00;;;24.00
56286;BMP180;42191;47.562;9.686;2023-07-28T06:14:31;96425.00;;;24.00
56286;BMP180;42191;47.562;9.686;2023-07-28T06:16:57;96434.00;;;24.10
56286;BMP180;42191;47.562;9.686;2023-07-28T06:19:23;96424.00;;;24.10
56286;BMP180;42191;47.562;9.686;2023-07-28T06:21:50;96427.00;;;24.10
56286;BMP180;42191;47.562;9.686;2023-07-28T06:24:17;96425.00;;;24.20
56286;BMP180;42191;47.562;9.686;2023-07-28T06:26:43;96430.00;;;24.20
56286;BMP180;42191;47.562;9.686;2023-07-28T06:29:09;96424.00;;;24.40
56286;BMP180;42191;47.562;9.686;2023-07-28T06:31:35;96427.00;;;24.50
56286;BMP180;42191;47.562;9.686;2023-07-28T06:34:02;96429.00;;;24.60
56286;BMP180;42191;47.562;9.686;2023-07-28T06:36:28;96431.00;;;24.70
56286;BMP180;42191;47.562;9.686;2023-07-28T06:38:54;96425.00;;;24.70
56286;BMP180;42191;47.562;9.686;2023-07-28T06:41:22;96432.00;;;24.90
56286;BMP180;42191;47.562;9.686;2023-07-28T06:43:48;96445.00;;;25.00
56286;BMP180;42191;47.562;9.686;2023-07-28T06:46:17;96448.00;;;25.10
56286;BMP180;42191;47.562;9.686;2023-07-28T06:48:43;96454.00;;;25.20
56286;BMP180;42191;47.562;9.686;2023-07-28T06:51:09;96450.00;;;25.30
56286;BMP180;42191;47.562;9.686;2023-07-28T06:53:35;96452.00;;;25.40
56286;BMP180;42191;47.562;9.686;2023-07-28T06:56:01;96448.00;;;25.40
56286;BMP180;42191;47.562;9.686;2023-07-28T06:58:27;96457.00;;;25.50
56286;BMP180;42191;47.562;9.686;2023-07-28T07:00:54;96451.00;;;25.60
56286;BMP180;42191;47.562;9.686;2023-07-28T07:03:21;96457.00;;;25.70
56286;BMP180;42191;47.562;9.686;2023-07-28T07:05:49;96460.00;;;25.90
56286;BMP180;42191;47.562;9.686;2023-07-28T07:08:15;96453.00;;;26.00
56286;BMP180;42191;47.562;9.686;2023-07-28T07:10:50;96457.00;;;26.10
56286;BMP180;42191;47.562;9.686;2023-07-28T07:13:17;96468.00;;;26.20
56286;BMP180;42191;47.562;9.686;2023-07-28T07:15:43;96457.00;;;26.30
56286;BMP180;42191;47.562;9.686;2023-07-28T07:18:10;96466.00;;;26.40
56286;BMP180;42191;47.562;9.686;2023-07-28T07:20:37;96464.00;;;26.50
56286;BMP180;42191;47.562;9.686;2023-07-28T07:23:04;96466.00;;;26.50
56286;BMP180;42191;47.562;9.686;2023-07-28T07:25:31;96467.00;;;26.50
56286;BMP180;42191;47.562;9.686;2023-07-28T07:27:57;96464.00;;;26.50
56286;BMP180;42191;47.562;9.686;2023-07-28T07:30:23;96462.00;;;26.50
56286;BMP180;42191;47.562;9.686;2023-07-28T07:32:49;96478.00;;;26.50
56286;BMP180;42191;47.562;9.686;2023-07-28T07:35:16;96471.00;;;26.60
56286;BMP180;42191;47.562;9.686;2023-07-28T07:37:42;96467.00;;;26.60
56286;BMP180;42191;47.562;9.686;2023-07-28T07:40:09;96473.00;;;26.70
56286;BMP180;42191;47.562;9.686;2023-07-28T07:42:48;96473.00;;;26.70
56286;BMP180;42191;47.562;9.686;2023-07-28T07:45:15;96475.00;;;26.70
56286;BMP180;42191;47.562;9.686;2023-07-28T07:47:42;96486.00;;;26.70
56286;BMP180;42191;47.562;9.686;2023-07-28T07:50:10;96484.00;;;26.60
56286;BMP180;42191;47.562;9.686;2023-07-28T07:52:37;96483.00;;;26.60
56286;BMP180;42191;47.562;9.686;2023-07-28T07:55:03;96479.00;;;26.60
56286;BMP180;42191;47.562;9.686;2023-07-28T07:57:30;96479.00;;;26.60
56286;BMP180;42191;47.562;9.686;2023-07-28T07:59:59;96487.00;;;26.70
56286;BMP180;42191;47.562;9.686;2023-07-28T08:02:25;96491.00;;;26.80
56286;BMP180;42191;47.562;9.686;2023-07-28T08:04:54;96491.00;;;26.80
56286;BMP180;42191;47.562;9.686;2023-07-28T08:07:21;96498.00;;;26.90
56286;BMP180;42191;47.562;9.686;2023-07-28T08:09:49;96496.00;;;27.00
56286;BMP180;42191;47.562;9.686;2023-07-28T08:12:15;96499.00;;;27.10
56286;BMP180;42191;47.562;9.686;2023-07-28T08:14:41;96508.00;;;27.10
56286;BMP180;42191;47.562;9.686;2023-07-28T08:17:08;96511.00;;;27.20
56286;BMP180;42191;47.562;9.686;2023-07-28T08:19:35;96506.00;;;27.40
56286;BMP180;42191;47.562;9.686;2023-07-28T08:22:02;96503.00;;;27.50
56286;BMP180;42191;47.562;9.686;2023-07-28T08:24:29;96499.00;;;27.60
56286;BMP180;42191;47.562;9.686;2023-07-28T08:26:56;96514.00;;;27.60
56286;BMP180;42191;47.562;9.686;2023-07-28T08:29:22;96504.00;;;27.60
56286;BMP180;42191;47.562;9.686;2023-07-28T08:31:48;96507.00;;;27.60
56286;BMP180;42191;47.562;9.686;2023-07-28T08:34:14;96502.00;;;27.60
56286;BMP180;42191;47.562;9.686;2023-07-28T08:36:41;96510.00;;;27.70
56286;BMP180;42191;47.562;9.686;2023-07-28T08:39:08;96512.00;;;27.80
56286;BMP180;42191;47.562;9.686;2023-07-28T08:41:35;96502.00;;;27.90
56286;BMP180;42191;47.562;9.686;2023-07-28T08:44:02;96499.00;;;27.90
56286;BMP180;42191;47.562;9.686;2023-07-28T08:46:28;96503.00;;;28.00
56286;BMP180;42191;47.562;9.686;2023-07-28T08:48:54;96500.00;;;28.10
56286;BMP180;42191;47.562;9.686;2023-07-28T08:51:24;96495.00;;;28.20
56286;BMP180;42191;47.562;9.686;2023-07-28T08:53:50;96497.00;;;28.30
56286;BMP180;42191;47.562;9.686;2023-07-28T08:56:16;96497.00;;;28.40
56286;BMP180;42191;47.562;9.686;2023-07-28T08:58:42;96495.00;;;28.50
56286;BMP180;42191;47.562;9.686;2023-07-28T09:01:08;96497.00;;;28.60
56286;BMP180;42191;47.562;9.686;2023-07-28T09:03:35;96498.00;;;28.80
56286;BMP180;42191;47.562;9.686;2023-07-28T09:06:06;96508.00;;;28.90
56286;BMP180;42191;47.562;9.686;2023-07-28T09:08:36;96507.00;;;29.00
56286;BMP180;42191;47.562;9.686;2023-07-28T09:11:05;96508.00;;;29.00
56286;BMP180;42191;47.562;9.686;2023-07-28T09:13:38;96501.00;;;29.10
56286;BMP180;42191;47.562;9.686;2023-07-28T09:16:04;96509.00;;;29.20
56286;BMP180;42191;47.562;9.686;2023-07-28T09:18:31;96492.00;;;29.40
56286;BMP180;42191;47.562;9.686;2023-07-28T09:20:57;96503.00;;;29.60
56286;BMP180;42191;47.562;9.686;2023-07-28T09:23:30;96508.00;;;29.70
56286;BMP180;42191;47.562;9.686;2023-07-28T09:26:01;96497.00;;;29.80
56286;BMP180;42191;47.562;9.686;2023-07-28T09:28:39;96500.00;;;29.80
56286;BMP180;42191;47.562;9.686;2023-07-28T09:31:07;96502.00;;;29.80
56286;BMP180;42191;47.562;9.686;2023-07-28T09:33:36;96495.00;;;29.80
56286;BMP180;42191;47.562;9.686;2023-07-28T09:36:13;96501.00;;;29.80
56286;BMP180;42191;47.562;9.686;2023-07-28T09:38:41;96500.00;;;29.80
56286;BMP180;42191;47.562;9.686;2023-07-28T09:41:08;96503.00;;;29.80
56286;BMP180;42191;47.562;9.686;2023-07-28T09:43:40;96506.00;;;29.80
56286;BMP180;42191;47.562;9.686;2023-07-28T09:46:10;96503.00;;;29.90
56286;BMP180;42191;47.562;9.686;2023-07-28T09:48:38;96512.00;;;30.00
56286;BMP180;42191;47.562;9.686;2023-07-28T09:51:12;96509.00;;;30.00
56286;BMP180;42191;47.562;9.686;2023-07-28T09:53:44;96512.00;;;30.10
56286;BMP180;42191;47.562;9.686;2023-07-28T09:56:15;96505.00;;;30.20
56286;BMP180;42191;47.562;9.686;2023-07-28T09:58:49;96510.00;;;30.20
56286;BMP180;42191;47.562;9.686;2023-07-28T10:01:15;96506.00;;;30.30
56286;BMP180;42191;47.562;9.686;2023-07-28T10:03:42;96508.00;;;30.40
56286;BMP180;42191;47.562;9.686;2023-07-28T10:06:08;96505.00;;;30.50
56286;BMP180;42191;47.562;9.686;2023-07-28T10:08:36;96504.00;;;30.60
56286;BMP180;42191;47.562;9.686;2023-07-28T10:11:03;96501.00;;;30.70
56286;BMP180;42191;47.562;9.686;2023-07-28T10:13:40;96506.00;;;30.80
56286;BMP180;42191;47.562;9.686;2023-07-28T10:16:08;96497.00;;;30.90
56286;BMP180;42191;47.562;9.686;2023-07-28T10:18:38;96502.00;;;31.00
56286;BMP180;42191;47.562;9.686;2023-07-28T10:21:10;96502.00;;;31.20
56286;BMP180;42191;47.562;9.686;2023-07-28T10:23:41;96499.00;;;31.30
56286;BMP180;42191;47.562;9.686;2023-07-28T10:26:10;96493.00;;;31.50
56286;BMP180;42191;47.562;9.686;2023-07-28T10:28:37;96490.00;;;31.70
56286;BMP180;42191;47.562;9.686;2023-07-28T10:31:08;96493.00;;;31.80
56286;BMP180;42191;47.562;9.686;2023-07-28T10:33:40;96490.00;;;32.00
56286;BMP180;42191;47.562;9.686;2023-07-28T10:36:14;96496.00;;;32.10
56286;BMP180;42191;47.562;9.686;2023-07-28T10:38:41;96488.00;;;32.30
56286;BMP180;42191;47.562;9.686;2023-07-28T10:41:17;96483.00;;;32.40
56286;BMP180;42191;47.562;9.686;2023-07-28T10:43:45;96485.00;;;32.60
56286;BMP180;42191;47.562;9.686;2023-07-28T10:46:15;96491.00;;;32.80
56286;BMP180;42191;47.562;9.686;2023-07-28T10:48:44;96486.00;;;32.90
56286;BMP180;42191;47.562;9.686;2023-07-28T10:51:11;96488.00;;;33.10
56286;BMP180;42191;47.562;9.686;2023-07-28T10:53:38;96492.00;;;33.30
56286;BMP180;42191;47.562;9.686;2023-07-28T10:56:04;96497.00;;;33.50
56286;BMP180;42191;47.562;9.686;2023-07-28T10:58:34;96489.00;;;33.70
56286;BMP180;42191;47.562;9.686;2023-07-28T11:01:02;96497.00;;;33.90
56286;BMP180;42191;47.562;9.686;2023-07-28T11:03:28;96490.00;;;34.00
56286;BMP180;42191;47.562;9.686;2023-07-28T11:05:55;96495.00;;;34.10
56286;BMP180;42191;47.562;9.686;2023-07-28T11:08:22;96497.00;;;34.10
56286;BMP180;42191;47.562;9.686;2023-07-28T11:10:49;96492.00;;;34.10
56286;BMP180;42191;47.562;9.686;2023-07-28T11:13:15;96494.00;;;34.00
56286;BMP180;42191;47.562;9.686;2023-07-28T11:15:41;96489.00;;;34.00
56286;BMP180;42191;47.562;9.686;2023-07-28T11:18:08;96496.00;;;34.00
56286;BMP180;42191;47.562;9.686;2023-07-28T11:20:35;96494.00;;;34.00
56286;BMP180;42191;47.562;9.686;2023-07-28T11:23:03;96486.00;;;34.00
56286;BMP180;42191;47.562;9.686;2023-07-28T11:25:31;96492.00;;;34.10
56286;BMP180;42191;47.562;9.686;2023-07-28T11:27:57;96483.00;;;34.20
56286;BMP180;42191;47.562;9.686;2023-07-28T11:30:26;96476.00;;;34.30
56286;BMP180;42191;47.562;9.686;2023-07-28T11:32:53;96475.00;;;34.30
56286;BMP180;42191;47.562;9.686;2023-07-28T11:35:21;96470.00;;;34.40
56286;BMP180;42191;47.562;9.686;2023-07-28T11:37:50;96465.00;;;34.50
56286;BMP180;42191;47.562;9.686;2023-07-28T11:40:19;96461.00;;;34.60
56286;BMP180;42191;47.562;9.686;2023-07-28T11:42:49;96460.00;;;34.70
56286;BMP180;42191;47.562;9.686;2023-07-28T11:45:17;96459.00;;;34.90
56286;BMP180;42191;47.562;9.686;2023-07-28T11:48:05;96450.00;;;35.00
56286;BMP180;42191;47.562;9.686;2023-07-28T11:50:37;96452.00;;;35.10
56286;BMP180;42191;47.562;9.686;2023-07-28T11:53:05;96457.00;;;35.20
56286;BMP180;42191;47.562;9.686;2023-07-28T11:55:33;96453.00;;;35.10
56286;BMP180;42191;47.562;9.686;2023-07-28T11:58:01;96458.00;;;35.10
56286;BMP180;42191;47.562;9.686;2023-07-28T12:00:37;96459.00;;;35.10
56286;BMP180;42191;47.562;9.686;2023-07-28T12:03:04;96460.00;;;35.10
56286;BMP180;42191;47.562;9.686;2023-07-28T12:05:31;96454.00;;;35.20
56286;BMP180;42191;47.562;9.686;2023-07-28T12:07:57;96454.00;;;35.20
56286;BMP180;42191;47.562;9.686;2023-07-28T12:10:23;96456.00;;;35.20
56286;BMP180;42191;47.562;9.686;2023-07-28T12:12:50;96446.00;;;35.20
56286;BMP180;42191;47.562;9.686;2023-07-28T12:15:20;96446.00;;;35.10
56286;BMP180;42191;47.562;9.686;2023-07-28T12:20:41;96441.00;;;35.10
56286;BMP180;42191;47.562;9.686;2023-07-28T12:23:08;96445.00;;;35.00
56286;BMP180;42191;47.562;9.686;2023-07-28T12:25:36;96444.00;;;35.00
56286;BMP180;42191;47.562;9.686;2023-07-28T12:28:03;96446.00;;;34.90
56286;BMP180;42191;47.562;9.686;2023-07-28T12:30:30;96452.00;;;34.80
56286;BMP180;42191;47.562;9.686;2023-07-28T12:32:56;96449.00;;;34.70
56286;BMP180;42191;47.562;9.686;2023-07-28T12:35:22;96449.00;;;34.60
56286;BMP180;42191;47.562;9.686;2023-07-28T12:37:50;96441.00;;;34.50
56286;BMP180;42191;47.562;9.686;2023-07-28T12:40:17;96449.00;;;34.50
56286;BMP180;42191;47.562;9.686;2023-07-28T12:42:45;96445.00;;;34.50
56286;BMP180;42191;47.562;9.686;2023-07-28T12:45:13;96447.00;;;34.70
56286;BMP180;42191;47.562;9.686;2023-07-28T12:47:40;96433.00;;;34.90
56286;BMP180;42191;47.562;9.686;2023-07-28T12:50:06;96440.00;;;35.00
56286;BMP180;42191;47.562;9.686;2023-07-28T12:52:33;96441.00;;;35.10
56286;BMP180;42191;47.562;9.686;2023-07-28T12:54:59;96437.00;;;35.30
56286;BMP180;42191;47.562;9.686;2023-07-28T12:57:25;96442.00;;;35.40
56286;BMP180;42191;47.562;9.686;2023-07-28T12:59:51;96441.00;;;35.40
56286;BMP180;42191;47.562;9.686;2023-07-28T13:02:18;96433.00;;;35.50
56286;BMP180;42191;47.562;9.686;2023-07-28T13:04:44;96432.00;;;35.50
56286;BMP180;42191;47.562;9.686;2023-07-28T13:07:10;96422.00;;;35.50
56286;BMP180;42191;47.562;9.686;2023-07-28T13:09:36;96416.00;;;35.60
56286;BMP180;42191;47.562;9.686;2023-07-28T13:12:03;96417.00;;;35.60
56286;BMP180;42191;47.562;9.686;2023-07-28T13:14:29;96426.00;;;35.80
56286;BMP180;42191;47.562;9.686;2023-07-28T13:16:55;96416.00;;;35.90
56286;BMP180;42191;47.562;9.686;2023-07-28T13:19:21;96430.00;;;36.00
56286;BMP180;42191;47.562;9.686;2023-07-28T13:21:48;96431.00;;;36.10
56286;BMP180;42191;47.562;9.686;2023-07-28T13:24:14;96440.00;;;36.10
56286;BMP180;42191;47.562;9.686;2023-07-28T13:26:40;96435.00;;;36.20
56286;BMP180;42191;47.562;9.686;2023-07-28T13:29:06;96431.00;;;36.60
56286;BMP180;42191;47.562;9.686;2023-07-28T13:31:33;96418.00;;;37.20
56286;BMP180;42191;47.562;9.686;2023-07-28T13:33:59;96418.00;;;37.90
56286;BMP180;42191;47.562;9.686;2023-07-28T13:36:25;96421.00;;;38.70
56286;BMP180;42191;47.562;9.686;2023-07-28T13:38:52;96421.00;;;39.40
56286;BMP180;42191;47.562;9.686;2023-07-28T13:41:18;96403.00;;;39.90
56286;BMP180;42191;47.562;9.686;2023-07-28T13:43:44;96404.00;;;40.20
56286;BMP180;42191;47.562;9.686;2023-07-28T13:46:10;96405.00;;;40.30
56286;BMP180;42191;47.562;9.686;2023-07-28T13:48:37;96406.00;;;40.30
56286;BMP180;42191;47.562;9.686;2023-07-28T13:51:05;96411.00;;;40.40
56286;BMP180;42191;47.562;9.686;2023-07-28T13:53:31;96413.00;;;40.60
56286;BMP180;42191;47.562;9.686;2023-07-28T13:55:57;96413.00;;;40.70
56286;BMP180;42191;47.562;9.686;2023-07-28T13:58:24;96412.00;;;40.70
56286;BMP180;42191;47.562;9.686;2023-07-28T14:00:50;96418.00;;;40.80
56286;BMP180;42191;47.562;9.686;2023-07-28T14:03:16;96414.00;;;40.90
56286;BMP180;42191;47.562;9.686;2023-07-28T14:05:43;96412.00;;;40.80
56286;BMP180;42191;47.562;9.686;2023-07-28T14:08:09;96395.00;;;40.80
56286;BMP180;42191;47.562;9.686;2023-07-28T14:10:37;96395.00;;;40.90
56286;BMP180;42191;47.562;9.686;2023-07-28T14:13:04;96386.00;;;41.20
56286;BMP180;42191;47.562;9.686;2023-07-28T14:15:30;96389.00;;;41.50